createdAt,value
2023-05-16T17:26:34.945Z,372.00
2023-05-16T17:27:34.721Z,380.00
2023-05-16T17:28:34.679Z,380.00
2023-05-16T17:29:34.632Z,368.00
2023-05-16T17:30:34.590Z,376.00
2023-05-16T17:31:34.538Z,380.00
2023-05-16T17:32:34.515Z,376.00
2023-05-16T17:33:34.470Z,364.00
2023-05-16T17:34:34.410Z,364.00
2023-05-16T17:35:34.368Z,372.00
2023-05-16T17:36:34.319Z,372.00
2023-05-16T17:37:34.289Z,352.00
2023-05-16T17:38:34.236Z,344.00
2023-05-16T17:39:34.229Z,336.00
2023-05-16T17:40:34.142Z,328.00
2023-05-16T17:41:34.101Z,324.00
2023-05-16T17:42:34.258Z,308.00
2023-05-16T17:43:34.012Z,292.00
2023-05-16T17:44:33.984Z,284.00
2023-05-16T17:45:33.932Z,264.00
2023-05-16T17:46:33.901Z,240.00
2023-05-16T17:47:33.841Z,236.00
2023-05-16T17:48:33.787Z,240.00
2023-05-16T17:49:33.785Z,260.00
2023-05-16T17:50:33.705Z,264.00
2023-05-16T17:51:33.662Z,260.00
2023-05-16T17:52:33.614Z,248.00
2023-05-16T17:53:33.563Z,248.00
2023-05-16T17:54:33.529Z,252.00
2023-05-16T17:55:33.493Z,252.00
2023-05-16T17:56:33.649Z,256.00
2023-05-16T17:57:33.397Z,252.00
2023-05-16T17:58:33.458Z,244.00
2023-05-16T17:59:33.330Z,236.00
2023-05-16T18:00:33.265Z,228.00
2023-05-16T18:01:33.223Z,232.00
2023-05-16T18:02:33.214Z,232.00
2023-05-16T18:03:33.177Z,228.00
2023-05-16T18:04:33.085Z,228.00
2023-05-16T18:05:33.217Z,232.00
2023-05-16T18:06:32.998Z,236.00
2023-05-16T18:07:32.951Z,228.00
2023-05-16T18:08:32.911Z,216.00
2023-05-16T18:09:32.868Z,212.00
2023-05-16T18:10:47.498Z,192.00
2023-05-16T18:11:32.779Z,188.00
2023-05-16T18:12:32.868Z,192.00
2023-05-16T18:13:32.690Z,192.00
2023-05-16T18:14:32.778Z,180.00
2023-05-16T18:15:32.595Z,172.00
2023-05-16T18:16:32.579Z,172.00
2023-05-16T18:17:32.554Z,184.00
2023-05-16T18:18:32.490Z,204.00
2023-05-16T18:19:32.522Z,208.00
2023-05-16T18:20:32.393Z,196.00
2023-05-16T18:21:32.341Z,176.00
2023-05-16T18:22:32.298Z,156.00
2023-05-16T18:23:32.245Z,148.00
2023-05-16T18:24:32.200Z,136.00
2023-05-16T18:25:32.164Z,128.00
2023-05-16T18:26:32.165Z,116.00
2023-05-16T18:27:32.065Z,108.00
2023-05-16T18:28:32.022Z,104.00
2023-05-16T18:29:32.000Z,104.00
2023-05-16T18:30:32.029Z,100.00
2023-05-16T18:31:31.884Z,100.00
2023-05-16T18:32:31.870Z,100.00
2023-05-16T18:33:31.836Z,100.00
2023-05-16T18:34:31.778Z,96.00
2023-05-16T18:35:31.774Z,96.00
2023-05-16T18:36:31.666Z,88.00
2023-05-16T18:37:31.642Z,84.00
2023-05-16T18:38:33.491Z,80.00
2023-05-16T18:39:31.526Z,80.00
2023-05-16T18:40:31.486Z,80.00
2023-05-16T18:41:31.452Z,76.00
2023-05-16T18:42:31.399Z,76.00
2023-05-16T18:43:31.348Z,80.00
2023-05-16T18:44:31.508Z,72.00
2023-05-16T18:45:31.264Z,72.00
2023-05-16T18:46:31.453Z,68.00
2023-05-16T18:47:31.269Z,68.00
2023-05-16T18:48:31.194Z,64.00
2023-05-16T18:49:31.079Z,64.00
2023-05-16T18:50:31.036Z,60.00
2023-05-16T18:51:30.989Z,60.00
2023-05-16T18:52:30.982Z,56.00
2023-05-16T18:53:30.905Z,56.00
2023-05-16T18:54:30.856Z,52.00
2023-05-16T18:55:30.919Z,48.00
2023-05-16T18:56:30.769Z,44.00
2023-05-16T18:58:30.675Z,36.00
2023-05-16T18:59:30.634Z,36.00
2023-05-16T19:00:30.592Z,32.00
2023-05-16T19:01:30.546Z,32.00
2023-05-16T19:02:40.933Z,32.00
2023-05-16T19:03:30.616Z,28.00
2023-05-16T19:04:30.480Z,28.00
2023-05-16T19:05:30.581Z,24.00
2023-05-16T19:06:30.318Z,20.00
2023-05-16T19:07:30.277Z,20.00
2023-05-16T19:08:40.339Z,16.00
2023-05-16T19:09:30.196Z,16.00
2023-05-16T19:10:30.342Z,20.00
2023-05-16T19:11:30.095Z,16.00
2023-05-16T19:12:30.048Z,12.00
2023-05-16T19:13:30.006Z,16.00
2023-05-16T19:14:30.019Z,12.00
2023-05-16T19:15:29.980Z,12.00
2023-05-16T19:16:29.871Z,12.00
2023-05-16T19:17:29.891Z,12.00
2023-05-16T19:18:29.969Z,12.00
2023-05-16T19:19:29.904Z,16.00
2023-05-16T19:20:29.911Z,12.00
2023-05-16T19:21:29.646Z,16.00
2023-05-16T19:22:29.665Z,16.00
2023-05-16T19:23:29.670Z,12.00
2023-05-16T19:24:29.528Z,16.00
2023-05-16T19:25:29.479Z,16.00
2023-05-16T19:26:29.419Z,12.00
2023-05-16T19:27:29.378Z,12.00
2023-05-16T19:28:29.332Z,8.00
2023-05-16T19:29:29.286Z,8.00
2023-05-16T19:30:29.491Z,8.00
2023-05-16T19:31:29.198Z,8.00
2023-05-16T19:32:29.164Z,8.00
2023-05-16T19:33:29.108Z,8.00
2023-05-16T19:34:29.626Z,8.00
2023-05-16T19:35:29.310Z,8.00
2023-05-16T19:36:28.970Z,8.00
2023-05-16T19:37:28.931Z,4.00
2023-05-16T19:38:28.887Z,4.00
2023-05-16T19:39:28.838Z,4.00
2023-05-16T19:40:28.816Z,4.00
2023-05-16T19:43:28.657Z,0.00
2023-05-16T19:44:28.625Z,4.00
2023-05-16T19:45:28.825Z,4.00
2023-05-16T19:46:28.533Z,4.00
2023-05-16T19:47:28.690Z,4.00
2023-05-16T19:48:28.488Z,4.00
2023-05-16T19:49:28.739Z,4.00
2023-05-16T19:50:28.485Z,0.00
2023-05-16T19:51:40.712Z,0.00
2023-05-16T19:52:28.251Z,0.00
2023-05-16T19:53:28.203Z,0.00
2023-05-16T19:54:28.160Z,0.00
2023-05-16T19:55:28.364Z,0.00
2023-05-16T19:56:28.068Z,0.00
2023-05-16T19:57:28.029Z,0.00
2023-05-16T19:58:28.002Z,0.00
2023-05-16T19:59:27.962Z,0.00
2023-05-16T20:00:27.916Z,0.00
2023-05-16T20:01:27.855Z,0.00
2023-05-16T20:02:27.823Z,0.00
2023-05-16T20:03:27.838Z,0.00
2023-05-16T20:04:27.941Z,0.00
2023-05-16T20:05:27.823Z,0.00
2023-05-16T20:06:27.706Z,0.00
2023-05-16T20:07:27.603Z,0.00
2023-05-16T20:08:27.520Z,0.00
2023-05-16T20:09:27.520Z,0.00
2023-05-16T20:10:27.431Z,0.00
2023-05-16T20:11:27.384Z,0.00
2023-05-16T20:12:27.348Z,0.00
2023-05-16T20:13:27.299Z,0.00
2023-05-16T20:14:27.250Z,0.00
2023-05-16T20:15:27.340Z,0.00
2023-05-16T20:16:27.197Z,0.00
2023-05-16T20:17:27.152Z,0.00
2023-05-16T20:18:27.093Z,0.00
2023-05-16T20:19:27.165Z,0.00
2023-05-16T20:20:26.985Z,0.00
2023-05-16T20:21:26.937Z,0.00
2023-05-16T20:22:27.031Z,0.00
2023-05-16T20:23:26.837Z,0.00
2023-05-16T20:24:26.821Z,0.00
2023-05-16T20:25:27.265Z,0.00
2023-05-16T20:26:26.709Z,0.00
2023-05-16T20:27:26.671Z,0.00
2023-05-16T20:28:26.630Z,0.00
2023-05-16T20:29:26.582Z,0.00
2023-05-16T20:30:26.520Z,0.00
2023-05-16T20:31:26.484Z,0.00
2023-05-16T20:32:26.425Z,0.00
2023-05-16T20:33:26.499Z,0.00
2023-05-16T20:34:26.341Z,0.00
2023-05-16T20:35:26.437Z,0.00
2023-05-16T20:36:26.252Z,0.00
